Time;durP1;ratioP1;P1;durP2;ratioP2;P2;SDS_P1;SDS_P2;PMS_P1;PMS_P2;Temp;Humidity;BMP_temperature;BMP_pressure;BME280_temperature;BME280_humidity;BME280_pressure;Samples;Min_cycle;Max_cycle;Signal;HPM_P1;HPM_P2
2021/11/02 00:00:59;;;;;;;;;1.50;1.00;;;;;;;;5049992;28;49856;-68
2021/11/02 00:03:24;;;;;;;;;1.00;1.00;;;;;;;;5050100;28;49876;-69
2021/11/02 00:05:49;;;;;;;;;1.50;1.00;;;;;;;;5049323;28;59862;-68
2021/11/02 00:08:14;;;;;;;;;4.75;2.00;;;;;;;;5032955;28;51346;-68
2021/11/02 00:10:40;;;;;;;;;1.50;1.50;;;;;;;;5033075;28;49816;-69
2021/11/02 00:13:06;;;;;;;;;2.75;2.00;;;;;;;;5051009;28;49857;-68
2021/11/02 00:15:32;;;;;;;;;0.00;0.00;;;;;;;;5032529;28;58417;-69
2021/11/02 00:18:01;;;;;;;;;1.50;0.00;;;;;;;;5050725;28;49792;-69
2021/11/02 00:20:26;;;;;;;;;0.00;0.00;;;;;;;;5050587;28;49568;-69
2021/11/02 00:22:59;;;;;;;;;1.00;0.00;;;;;;;;5049844;28;49866;-69
2021/11/02 00:25:25;;;;;;;;;0.75;0.75;;;;;;;;5050795;28;51026;-68
2021/11/02 00:27:50;;;;;;;;;1.00;1.00;;;;;;;;5050475;28;49865;-68
2021/11/02 00:30:16;;;;;;;;;2.00;1.00;;;;;;;;5049564;28;50008;-68
2021/11/02 00:32:45;;;;;;;;;2.75;2.00;;;;;;;;5049644;28;49913;-69
2021/11/02 00:35:13;;;;;;;;;1.00;0.00;;;;;;;;5048953;28;50460;-68
2021/11/02 00:37:38;;;;;;;;;2.00;1.00;;;;;;;;5050649;28;49680;-68
2021/11/02 00:40:06;;;;;;;;;1.25;1.25;;;;;;;;5032567;28;49817;-69
2021/11/02 00:42:37;;;;;;;;;1.00;1.00;;;;;;;;5050742;28;49884;-69
2021/11/02 00:45:04;;;;;;;;;0.50;0.50;;;;;;;;5049399;28;49754;-69
2021/11/02 00:47:29;;;;;;;;;0.75;0.75;;;;;;;;5050613;28;49869;-69
2021/11/02 00:49:54;;;;;;;;;0.75;0.75;;;;;;;;5048379;28;49744;-69
2021/11/02 00:52:19;;;;;;;;;1.50;1.00;;;;;;;;5050585;28;49904;-68
2021/11/02 00:54:45;;;;;;;;;1.00;0.75;;;;;;;;5048947;28;50250;-69
2021/11/02 00:57:10;;;;;;;;;1.75;1.75;;;;;;;;5050266;28;49585;-70
2021/11/02 00:59:35;;;;;;;;;4.00;0.75;;;;;;;;5050642;28;49596;-69
2021/11/02 01:02:00;;;;;;;;;1.25;1.25;;;;;;;;5034961;28;50112;-69
2021/11/02 01:04:25;;;;;;;;;2.25;1.00;;;;;;;;5053883;28;49754;-70
2021/11/02 01:06:52;;;;;;;;;3.75;0.50;;;;;;;;5035164;28;64432;-72
2021/11/02 01:09:17;;;;;;;;;0.00;0.00;;;;;;;;5052788;28;49920;-69
2021/11/02 01:11:43;;;;;;;;;1.50;0.50;;;;;;;;5053951;28;49907;-68
2021/11/02 01:14:08;;;;;;;;;0.75;0.75;;;;;;;;5052345;28;50544;-69
2021/11/02 01:16:34;;;;;;;;;1.50;0.50;;;;;;;;5053800;28;49578;-69
2021/11/02 01:18:59;;;;;;;;;1.00;1.00;;;;;;;;5053791;28;49860;-68
2021/11/02 01:21:24;;;;;;;;;2.50;2.00;;;;;;;;5053355;28;51432;-69
2021/11/02 01:23:50;;;;;;;;;1.00;1.00;;;;;;;;5053532;28;50211;-68
2021/11/02 01:26:15;;;;;;;;;0.00;0.00;;;;;;;;5053776;28;49664;-68
2021/11/02 01:28:40;;;;;;;;;1.00;1.00;;;;;;;;5052483;28;49811;-70
2021/11/02 01:31:05;;;;;;;;;3.00;1.25;;;;;;;;5052488;28;49837;-69
2021/11/02 01:33:30;;;;;;;;;1.75;0.75;;;;;;;;5052938;28;67316;-68
2021/11/02 01:35:56;;;;;;;;;2.00;1.00;;;;;;;;5051790;28;49800;-69
2021/11/02 01:38:23;;;;;;;;;0.00;0.00;;;;;;;;5035211;28;56239;-70
2021/11/02 01:40:50;;;;;;;;;0.00;0.00;;;;;;;;5053685;28;49942;-69
2021/11/02 01:43:15;;;;;;;;;0.50;0.00;;;;;;;;5052119;28;49645;-69
2021/11/02 01:45:40;;;;;;;;;1.50;1.50;;;;;;;;5051839;28;53905;-69
2021/11/02 01:48:06;;;;;;;;;0.00;0.00;;;;;;;;5053422;28;49832;-69
2021/11/02 01:50:31;;;;;;;;;1.00;1.00;;;;;;;;5053338;28;49605;-69
2021/11/02 01:52:57;;;;;;;;;1.00;0.00;;;;;;;;5034110;28;49905;-69
2021/11/02 01:55:22;;;;;;;;;2.00;1.00;;;;;;;;5053247;28;50148;-69
2021/11/02 01:57:47;;;;;;;;;0.00;0.00;;;;;;;;5052079;28;49870;-70
2021/11/02 02:00:13;;;;;;;;;1.00;1.00;;;;;;;;5053587;28;50059;-69
2021/11/02 02:02:56;;;;;;;;;2.00;1.00;;;;;;;;5051601;28;50474;-70
2021/11/02 02:05:37;;;;;;;;;1.50;0.00;;;;;;;;5051536;28;49783;-69
2021/11/02 02:08:08;;;;;;;;;2.00;0.50;;;;;;;;5052979;28;49786;-68
2021/11/02 02:10:37;;;;;;;;;1.00;1.00;;;;;;;;5053160;28;49728;-69
2021/11/02 02:13:12;;;;;;;;;1.25;1.25;;;;;;;;5051173;28;50490;-69
2021/11/02 02:15:41;;;;;;;;;0.00;0.00;;;;;;;;5052766;28;49628;-70
2021/11/02 02:18:08;;;;;;;;;0.00;0.00;;;;;;;;5051428;28;49957;-69
2021/11/02 02:20:41;;;;;;;;;0.00;0.00;;;;;;;;5051510;28;50054;-69
2021/11/02 02:23:07;;;;;;;;;0.00;0.00;;;;;;;;5051080;28;54155;-69
2021/11/02 02:25:35;;;;;;;;;1.00;0.00;;;;;;;;5052628;28;49925;-68
2021/11/02 02:28:08;;;;;;;;;1.25;0.25;;;;;;;;5051924;28;49850;-69
2021/11/02 02:30:34;;;;;;;;;2.00;2.00;;;;;;;;5051356;28;49772;-69
2021/11/02 02:33:00;;;;;;;;;1.00;1.00;;;;;;;;5034353;28;52513;-69
2021/11/02 02:35:25;;;;;;;;;0.00;0.00;;;;;;;;5051116;28;49773;-69
2021/11/02 02:37:50;;;;;;;;;1.50;1.50;;;;;;;;5051238;28;49766;-69
2021/11/02 02:40:16;;;;;;;;;1.25;1.25;;;;;;;;5051409;28;49740;-70
2021/11/02 02:42:42;;;;;;;;;0.00;0.00;;;;;;;;5050956;28;55205;-69
2021/11/02 02:45:07;;;;;;;;;0.00;0.00;;;;;;;;5051053;28;49633;-69
2021/11/02 02:47:33;;;;;;;;;1.00;1.00;;;;;;;;5052486;28;49679;-69
2021/11/02 02:49:58;;;;;;;;;1.00;1.00;;;;;;;;5051256;28;49808;-68
2021/11/02 02:52:24;;;;;;;;;1.25;0.75;;;;;;;;5033966;28;50397;-69
2021/11/02 02:54:49;;;;;;;;;0.50;0.50;;;;;;;;5051086;28;49771;-69
2021/11/02 02:57:15;;;;;;;;;0.00;0.00;;;;;;;;5051245;28;49897;-69
2021/11/02 02:59:40;;;;;;;;;1.00;1.00;;;;;;;;5050929;28;50138;-69
2021/11/02 03:02:05;;;;;;;;;0.00;0.00;;;;;;;;5052121;28;50937;-69
2021/11/02 03:04:33;;;;;;;;;0.00;0.00;;;;;;;;5051037;28;49820;-69
2021/11/02 03:06:59;;;;;;;;;0.00;0.00;;;;;;;;5051020;28;49713;-69
2021/11/02 03:09:24;;;;;;;;;1.50;0.25;;;;;;;;5051045;28;50006;-69
2021/11/02 03:11:49;;;;;;;;;3.00;1.00;;;;;;;;5050681;28;50808;-69
2021/11/02 03:14:19;;;;;;;;;1.25;1.00;;;;;;;;5050856;28;49891;-69
2021/11/02 03:49:51;;;;;;;;;0.00;0.00;;;;;;;;5050094;28;49805;-68
2021/11/02 03:55:09;;;;;;;;;0.75;0.75;;;;;;;;5042114;28;50535;-68
2021/11/02 03:57:54;;;;;;;;;0.75;0.75;;;;;;;;5049957;28;49688;-68
2021/11/02 05:07:18;;;;;;;;;1.00;1.00;;;;;;;;5049102;28;49793;-68
2021/11/02 05:47:39;;;;;;;;;1.00;1.00;;;;;;;;5052087;28;49772;-69
2021/11/02 05:55:10;;;;;;;;;1.00;1.00;;;;;;;;5052121;28;50102;-69
2021/11/02 06:00:10;;;;;;;;;2.00;1.75;;;;;;;;5052019;28;49898;-69
2021/11/02 06:05:13;;;;;;;;;1.25;0.25;;;;;;;;5051520;28;49632;-69
2021/11/02 06:29:55;;;;;;;;;1.00;1.00;;;;;;;;5053767;28;49685;-72
2021/11/02 06:32:27;;;;;;;;;0.00;0.00;;;;;;;;5057281;28;49796;-77
2021/11/02 06:35:18;;;;;;;;;1.00;1.00;;;;;;;;5053891;28;50061;-77
2021/11/02 06:38:26;;;;;;;;;2.50;1.00;;;;;;;;5060806;28;49547;-70
2021/11/02 06:50:04;;;;;;;;;0.75;0.75;;;;;;;;4961889;28;50292;-77
2021/11/02 07:18:45;;;;;;;;;0.50;0.50;;;;;;;;5016469;28;49761;-74
2021/11/02 07:21:16;;;;;;;;;0.00;0.00;;;;;;;;5013759;28;49866;-71
2021/11/02 07:24:21;;;;;;;;;2.00;1.50;;;;;;;;5014789;28;49781;-69
2021/11/02 07:27:51;;;;;;;;;1.00;1.00;;;;;;;;5028548;28;50161;-71
2021/11/02 08:48:59;;;;;;;;;0.25;0.25;;;;;;;;5036954;28;49940;-68
2021/11/02 08:51:24;;;;;;;;;1.00;1.00;;;;;;;;5028406;28;49989;-68
2021/11/02 08:53:50;;;;;;;;;0.25;0.25;;;;;;;;5027559;28;49863;-68
2021/11/02 08:56:15;;;;;;;;;1.00;1.00;;;;;;;;5012609;28;50078;-68
2021/11/02 08:58:40;;;;;;;;;2.00;1.00;;;;;;;;5026281;28;49781;-68
2021/11/02 09:01:06;;;;;;;;;0.00;0.00;;;;;;;;4994960;28;49665;-68
2021/11/02 09:03:34;;;;;;;;;2.75;2.00;;;;;;;;5012660;28;49835;-68
2021/11/02 09:06:00;;;;;;;;;1.00;1.00;;;;;;;;5003495;28;50638;-68
2021/11/02 09:08:27;;;;;;;;;1.00;1.00;;;;;;;;5030493;28;49801;-69
2021/11/02 09:10:52;;;;;;;;;1.25;0.50;;;;;;;;5030087;28;49805;-68
2021/11/02 09:13:17;;;;;;;;;2.50;1.00;;;;;;;;5029677;28;49673;-68
2021/11/02 09:15:43;;;;;;;;;1.50;1.50;;;;;;;;5011921;28;50435;-69
2021/11/02 09:18:09;;;;;;;;;1.00;1.00;;;;;;;;5011838;28;50020;-68
2021/11/02 09:20:35;;;;;;;;;0.00;0.00;;;;;;;;5028574;28;50069;-68
2021/11/02 09:23:00;;;;;;;;;1.00;1.00;;;;;;;;5032330;28;49896;-68
2021/11/02 09:25:25;;;;;;;;;0.50;0.50;;;;;;;;5033386;28;49859;-68
2021/11/02 09:27:50;;;;;;;;;0.75;0.25;;;;;;;;5033115;28;49816;-68
2021/11/02 09:30:16;;;;;;;;;1.00;1.00;;;;;;;;5033609;28;49678;-68
2021/11/02 09:32:42;;;;;;;;;2.00;1.00;;;;;;;;5032802;28;50575;-68
2021/11/02 09:35:07;;;;;;;;;4.00;1.00;;;;;;;;5031448;28;49933;-69
2021/11/02 09:37:33;;;;;;;;;0.00;0.00;;;;;;;;5032140;28;50487;-68
2021/11/02 09:40:01;;;;;;;;;0.25;0.25;;;;;;;;5032426;28;49868;-68
2021/11/02 09:42:35;;;;;;;;;1.00;1.00;;;;;;;;5015295;28;50007;-68
2021/11/02 09:45:11;;;;;;;;;0.00;0.00;;;;;;;;5033556;28;50019;-68
2021/11/02 09:47:43;;;;;;;;;1.00;1.00;;;;;;;;5032683;28;49745;-68
2021/11/02 09:50:15;;;;;;;;;0.00;0.00;;;;;;;;5024315;28;49752;-68
2021/11/02 09:52:59;;;;;;;;;0.25;0.25;;;;;;;;5014814;28;49892;-68
2021/11/02 09:55:33;;;;;;;;;1.00;1.00;;;;;;;;5032077;28;50538;-69
2021/11/02 09:58:01;;;;;;;;;1.75;0.50;;;;;;;;5032988;28;49668;-68
2021/11/02 10:00:31;;;;;;;;;0.00;0.00;;;;;;;;5032429;28;49705;-68
2021/11/02 10:02:58;;;;;;;;;0.00;0.00;;;;;;;;5032494;28;49929;-68
2021/11/02 10:05:25;;;;;;;;;1.00;1.00;;;;;;;;5031626;28;50806;-68
2021/11/02 10:07:56;;;;;;;;;0.00;0.00;;;;;;;;5032745;28;49797;-69
2021/11/02 10:10:22;;;;;;;;;1.00;1.00;;;;;;;;5032457;28;49560;-69
2021/11/02 10:13:06;;;;;;;;;0.00;0.00;;;;;;;;5032330;28;49975;-68
2021/11/02 10:15:34;;;;;;;;;2.00;0.50;;;;;;;;5032469;28;50249;-68
2021/11/02 10:18:07;;;;;;;;;0.25;0.25;;;;;;;;5032328;28;49696;-68
2021/11/02 10:20:47;;;;;;;;;2.00;0.50;;;;;;;;5033012;28;49832;-68
2021/11/02 10:23:12;;;;;;;;;1.00;1.00;;;;;;;;5032872;28;49722;-68
2021/11/02 10:25:44;;;;;;;;;1.00;1.00;;;;;;;;5014438;28;50937;-68
2021/11/02 10:28:09;;;;;;;;;1.75;0.75;;;;;;;;5032475;28;49835;-70
2021/11/02 10:30:46;;;;;;;;;1.50;1.00;;;;;;;;5030831;28;50503;-67
2021/11/02 10:33:30;;;;;;;;;0.50;0.25;;;;;;;;5012109;28;49958;-69
2021/11/02 10:36:14;;;;;;;;;1.75;1.75;;;;;;;;5032573;28;50533;-71
2021/11/02 10:38:43;;;;;;;;;1.00;1.00;;;;;;;;5030743;28;49875;-71
2021/11/02 10:41:10;;;;;;;;;1.00;1.00;;;;;;;;5029746;28;49889;-73
2021/11/02 10:43:39;;;;;;;;;0.25;0.25;;;;;;;;5021697;28;50075;-74
2021/11/02 10:46:05;;;;;;;;;1.50;0.50;;;;;;;;5035103;28;50631;-76
2021/11/02 10:48:49;;;;;;;;;0.75;0.75;;;;;;;;5018115;28;49706;-73
2021/11/02 10:51:21;;;;;;;;;1.00;1.00;;;;;;;;5031863;28;49895;-73
2021/11/02 10:53:46;;;;;;;;;0.00;0.00;;;;;;;;5030553;28;49851;-73
2021/11/02 10:56:30;;;;;;;;;2.25;0.00;;;;;;;;5031860;28;49782;-73
2021/11/02 10:58:56;;;;;;;;;0.25;0.25;;;;;;;;5034641;28;49814;-77
2021/11/02 11:01:21;;;;;;;;;2.00;1.00;;;;;;;;5014431;28;49879;-73
2021/11/02 11:03:47;;;;;;;;;0.25;0.25;;;;;;;;5032112;28;49927;-75
2021/11/02 11:06:13;;;;;;;;;0.00;0.00;;;;;;;;5018556;28;51524;-73
2021/11/02 11:08:42;;;;;;;;;1.00;1.00;;;;;;;;5035101;28;50315;-78
2021/11/02 11:11:08;;;;;;;;;0.00;0.00;;;;;;;;5031794;28;49963;-70
2021/11/02 11:13:33;;;;;;;;;0.00;0.00;;;;;;;;5014537;28;49734;-74
2021/11/02 11:16:17;;;;;;;;;1.50;0.25;;;;;;;;5038365;28;49980;-71
2021/11/02 11:19:02;;;;;;;;;0.00;0.00;;;;;;;;5028867;28;49930;-76
2021/11/02 11:21:27;;;;;;;;;1.00;1.00;;;;;;;;5038645;28;49784;-72
2021/11/02 11:24:05;;;;;;;;;0.00;0.00;;;;;;;;5021627;28;49896;-70
2021/11/02 11:26:31;;;;;;;;;1.00;1.00;;;;;;;;5034400;28;50706;-69
2021/11/02 11:28:56;;;;;;;;;0.00;0.00;;;;;;;;5013564;28;49644;-67
2021/11/02 11:31:22;;;;;;;;;1.50;0.00;;;;;;;;5031806;28;49919;-67
2021/11/02 11:33:47;;;;;;;;;0.00;0.00;;;;;;;;5031912;28;49927;-67
2021/11/02 11:36:13;;;;;;;;;0.00;0.00;;;;;;;;5032050;28;49673;-67
2021/11/02 11:38:39;;;;;;;;;2.00;0.00;;;;;;;;5031436;28;49717;-65
2021/11/02 11:41:05;;;;;;;;;1.00;1.00;;;;;;;;5031425;28;49621;-68
2021/11/02 11:43:33;;;;;;;;;0.00;0.00;;;;;;;;5031544;28;49691;-71
2021/11/02 11:45:58;;;;;;;;;1.75;1.75;;;;;;;;5030537;28;50028;-72
2021/11/02 11:48:25;;;;;;;;;0.00;0.00;;;;;;;;5013588;28;50079;-72
2021/11/02 11:50:50;;;;;;;;;0.25;0.25;;;;;;;;5013450;28;50106;-73
2021/11/02 11:53:15;;;;;;;;;1.00;1.00;;;;;;;;5013301;28;49948;-70
2021/11/02 11:55:42;;;;;;;;;1.50;0.50;;;;;;;;5013345;28;49784;-68
2021/11/02 11:58:23;;;;;;;;;0.00;0.00;;;;;;;;5031235;28;49701;-70
2021/11/02 12:01:07;;;;;;;;;0.00;0.00;;;;;;;;5013254;28;49889;-69
2021/11/02 12:03:47;;;;;;;;;0.00;0.00;;;;;;;;5036813;28;49918;-70
2021/11/02 12:06:15;;;;;;;;;0.00;0.00;;;;;;;;5034289;28;50860;-69
2021/11/02 12:08:53;;;;;;;;;1.00;0.50;;;;;;;;5019758;28;49942;-70
2021/11/02 12:11:19;;;;;;;;;0.50;0.00;;;;;;;;5010274;28;49858;-70
2021/11/02 12:13:44;;;;;;;;;0.00;0.00;;;;;;;;5009681;28;49984;-81
2021/11/02 12:16:20;;;;;;;;;1.00;1.00;;;;;;;;5008071;28;51345;-73
2021/11/02 12:18:48;;;;;;;;;1.00;1.00;;;;;;;;5007938;28;49842;-75
2021/11/02 12:21:16;;;;;;;;;0.25;0.25;;;;;;;;4991514;28;50060;-75
2021/11/02 12:23:42;;;;;;;;;1.00;1.00;;;;;;;;5004375;28;49882;-76
2021/11/02 12:26:08;;;;;;;;;0.00;0.00;;;;;;;;5009827;28;50015;-76
2021/11/02 12:28:34;;;;;;;;;0.25;0.25;;;;;;;;5010972;28;49038;-76
2021/11/02 12:31:00;;;;;;;;;0.50;0.50;;;;;;;;4993055;28;49827;-75
2021/11/02 12:33:26;;;;;;;;;1.00;1.00;;;;;;;;4992946;28;50037;-76
2021/11/02 12:35:52;;;;;;;;;0.00;0.00;;;;;;;;4992858;28;51674;-76
2021/11/02 12:38:26;;;;;;;;;0.00;0.00;;;;;;;;4992778;28;49719;-76
2021/11/02 12:40:52;;;;;;;;;0.00;0.00;;;;;;;;5010699;28;49824;-76
2021/11/02 12:43:20;;;;;;;;;0.00;0.00;;;;;;;;5011420;28;50173;-74
2021/11/02 12:45:46;;;;;;;;;0.00;0.00;;;;;;;;4992639;28;52064;-74
2021/11/02 12:48:11;;;;;;;;;0.00;0.00;;;;;;;;5009133;28;50283;-74
2021/11/02 12:50:38;;;;;;;;;0.00;0.00;;;;;;;;5009032;28;50106;-74
2021/11/02 12:53:04;;;;;;;;;1.00;1.00;;;;;;;;4992812;28;49669;-74
2021/11/02 12:55:29;;;;;;;;;0.00;0.00;;;;;;;;5010268;28;50599;-74
2021/11/02 12:57:59;;;;;;;;;0.00;0.00;;;;;;;;5009245;28;49804;-74
2021/11/02 13:00:27;;;;;;;;;0.00;0.00;;;;;;;;4992719;28;49661;-78
2021/11/02 13:03:02;;;;;;;;;0.00;0.00;;;;;;;;4992662;28;49893;-73
2021/11/02 13:05:28;;;;;;;;;0.00;0.00;;;;;;;;5010109;28;50314;-75
2021/11/02 13:08:00;;;;;;;;;2.75;1.00;;;;;;;;5010198;28;50057;-74
2021/11/02 13:10:30;;;;;;;;;2.75;0.75;;;;;;;;4992467;28;49833;-74
2021/11/02 13:12:55;;;;;;;;;0.00;0.00;;;;;;;;5009167;28;49630;-74
2021/11/02 13:15:20;;;;;;;;;1.25;0.75;;;;;;;;5008636;28;50057;-74
2021/11/02 13:17:51;;;;;;;;;2.00;2.00;;;;;;;;5024516;28;49739;-74
2021/11/02 13:20:30;;;;;;;;;1.25;0.00;;;;;;;;4995996;28;50143;-73
2021/11/02 13:22:55;;;;;;;;;2.00;0.00;;;;;;;;5028794;28;49719;-73
2021/11/02 13:25:24;;;;;;;;;0.00;0.00;;;;;;;;5029900;28;50286;-74
2021/11/02 13:27:54;;;;;;;;;0.00;0.00;;;;;;;;5029949;28;50138;-75
2021/11/02 13:30:23;;;;;;;;;2.50;0.00;;;;;;;;5012036;28;49713;-76
2021/11/02 13:33:03;;;;;;;;;1.00;0.00;;;;;;;;5029887;28;49642;-73
2021/11/02 13:35:35;;;;;;;;;0.00;0.00;;;;;;;;5011498;28;52189;-69
2021/11/02 13:38:17;;;;;;;;;0.00;0.00;;;;;;;;5029896;28;49828;-77
2021/11/02 13:40:42;;;;;;;;;0.00;0.00;;;;;;;;5010957;28;49732;-69
2021/11/02 13:43:07;;;;;;;;;0.00;0.00;;;;;;;;5029985;28;49692;-69
2021/11/02 13:45:32;;;;;;;;;0.00;0.00;;;;;;;;5011620;28;51904;-69
2021/11/02 13:47:58;;;;;;;;;0.00;0.00;;;;;;;;5029683;28;49645;-68
2021/11/02 13:50:24;;;;;;;;;0.00;0.00;;;;;;;;5029574;28;49614;-69
2021/11/02 13:52:52;;;;;;;;;0.00;0.00;;;;;;;;5029891;28;49982;-69
2021/11/02 13:55:17;;;;;;;;;2.00;1.00;;;;;;;;5029586;28;50792;-69
2021/11/02 13:57:43;;;;;;;;;2.00;0.00;;;;;;;;5011829;28;49790;-68
2021/11/02 14:00:08;;;;;;;;;1.00;1.00;;;;;;;;5027976;28;49832;-68
2021/11/02 14:02:33;;;;;;;;;0.00;0.00;;;;;;;;5019203;28;49968;-67
2021/11/02 14:04:59;;;;;;;;;1.00;0.00;;;;;;;;5009588;28;50654;-74
2021/11/02 14:07:28;;;;;;;;;0.00;0.00;;;;;;;;5008989;28;49830;-67
2021/11/02 14:09:57;;;;;;;;;0.00;0.00;;;;;;;;5013258;28;49741;-71
2021/11/02 14:12:25;;;;;;;;;0.00;0.00;;;;;;;;5011687;28;49907;-68
2021/11/02 14:14:50;;;;;;;;;0.00;0.00;;;;;;;;5013214;28;50713;-69
2021/11/02 14:17:22;;;;;;;;;0.00;0.00;;;;;;;;5012783;28;49752;-69
2021/11/02 14:19:47;;;;;;;;;0.00;0.00;;;;;;;;5012939;28;49856;-67
2021/11/02 14:22:13;;;;;;;;;0.00;0.00;;;;;;;;5012901;28;49688;-67
2021/11/02 14:24:39;;;;;;;;;0.00;0.00;;;;;;;;5013194;28;50702;-67
2021/11/02 14:27:05;;;;;;;;;0.00;0.00;;;;;;;;5013047;28;49824;-67
2021/11/02 14:29:50;;;;;;;;;0.50;0.50;;;;;;;;5013310;28;49725;-67
2021/11/02 14:32:34;;;;;;;;;0.75;0.00;;;;;;;;5011725;28;50027;-67
2021/11/02 14:34:59;;;;;;;;;2.00;0.00;;;;;;;;5012466;28;50678;-72
2021/11/02 14:37:25;;;;;;;;;1.00;0.00;;;;;;;;5012160;28;49727;-67
2021/11/02 14:39:57;;;;;;;;;0.00;0.00;;;;;;;;5011405;28;49859;-67
2021/11/02 14:42:36;;;;;;;;;1.00;1.00;;;;;;;;5012480;28;49707;-66
2021/11/02 14:45:01;;;;;;;;;0.00;0.00;;;;;;;;5012175;28;50425;-66
2021/11/02 14:47:44;;;;;;;;;2.00;2.00;;;;;;;;5011124;28;49703;-66
2021/11/02 14:50:28;;;;;;;;;0.25;0.25;;;;;;;;5011208;28;49849;-66
2021/11/02 14:53:07;;;;;;;;;0.00;0.00;;;;;;;;5012487;28;49737;-67
2021/11/02 14:55:48;;;;;;;;;0.00;0.00;;;;;;;;5012182;28;50747;-67
2021/11/02 14:58:33;;;;;;;;;0.00;0.00;;;;;;;;5012118;28;49825;-66
2021/11/02 15:00:59;;;;;;;;;0.00;0.00;;;;;;;;5011959;28;49828;-67
2021/11/02 15:03:24;;;;;;;;;0.00;0.00;;;;;;;;5012451;28;49757;-65
2021/11/02 15:05:49;;;;;;;;;0.75;0.75;;;;;;;;5011963;28;50177;-69
2021/11/02 15:08:15;;;;;;;;;0.00;0.00;;;;;;;;5012250;28;49765;-66
2021/11/02 15:10:42;;;;;;;;;0.00;0.00;;;;;;;;5012495;28;50257;-66
2021/11/02 15:13:08;;;;;;;;;0.75;0.75;;;;;;;;5012189;28;49774;-66
2021/11/02 15:15:33;;;;;;;;;1.25;1.25;;;;;;;;5010423;28;49627;-66
2021/11/02 15:18:05;;;;;;;;;0.75;0.75;;;;;;;;5010585;28;52696;-66
2021/11/02 15:20:30;;;;;;;;;2.00;0.50;;;;;;;;5010688;28;49753;-66
2021/11/02 15:22:56;;;;;;;;;0.00;0.00;;;;;;;;5012160;28;50212;-66
2021/11/02 15:25:21;;;;;;;;;1.00;0.00;;;;;;;;5011929;28;50884;-66
2021/11/02 15:27:46;;;;;;;;;1.50;1.50;;;;;;;;5010511;28;50114;-66
2021/11/02 15:30:12;;;;;;;;;0.00;0.00;;;;;;;;5011928;28;49637;-67
2021/11/02 15:32:41;;;;;;;;;0.00;0.00;;;;;;;;5011775;28;49817;-67
2021/11/02 15:35:08;;;;;;;;;2.25;1.00;;;;;;;;5011261;28;50855;-67
2021/11/02 15:37:36;;;;;;;;;2.25;1.00;;;;;;;;5011345;28;49724;-67
2021/11/02 15:40:01;;;;;;;;;0.00;0.00;;;;;;;;5012210;28;49891;-67
2021/11/02 15:42:28;;;;;;;;;0.00;0.00;;;;;;;;5011634;28;49654;-64
2021/11/02 15:44:55;;;;;;;;;1.00;1.00;;;;;;;;5011389;28;50788;-67
2021/11/02 15:47:20;;;;;;;;;2.00;1.75;;;;;;;;5010165;28;49844;-66
2021/11/02 15:50:04;;;;;;;;;1.00;1.00;;;;;;;;5011384;28;49657;-66
2021/11/02 15:52:30;;;;;;;;;2.00;2.00;;;;;;;;5010068;28;50049;-66
2021/11/02 15:54:58;;;;;;;;;1.50;0.50;;;;;;;;5011437;28;50916;-66
2021/11/02 15:57:24;;;;;;;;;1.00;1.00;;;;;;;;5009950;28;49825;-66
2021/11/02 16:00:00;;;;;;;;;1.00;1.00;;;;;;;;5010141;28;50007;-66
2021/11/02 16:02:38;;;;;;;;;3.00;2.00;;;;;;;;5011720;28;49837;-67
2021/11/02 16:05:10;;;;;;;;;1.00;1.00;;;;;;;;5011469;28;49958;-66
2021/11/02 16:07:35;;;;;;;;;1.50;0.25;;;;;;;;5011429;28;49952;-66
2021/11/02 16:10:00;;;;;;;;;2.25;1.00;;;;;;;;5011614;28;50010;-67
2021/11/02 16:12:30;;;;;;;;;1.00;1.00;;;;;;;;5009974;28;49773;-66
2021/11/02 16:15:00;;;;;;;;;1.25;1.25;;;;;;;;5010941;28;50773;-66
2021/11/02 16:17:26;;;;;;;;;2.50;1.00;;;;;;;;5010765;28;49697;-67
2021/11/02 16:19:52;;;;;;;;;1.00;1.00;;;;;;;;5009750;28;49604;-67
2021/11/02 16:22:18;;;;;;;;;2.00;1.75;;;;;;;;5013378;28;49920;-66
2021/11/02 16:24:44;;;;;;;;;3.00;1.50;;;;;;;;5009395;28;49771;-67
2021/11/02 16:27:21;;;;;;;;;1.50;1.50;;;;;;;;5010845;28;49622;-67
2021/11/02 16:29:50;;;;;;;;;2.00;0.00;;;;;;;;5009772;28;49881;-67
2021/11/02 16:32:19;;;;;;;;;2.00;1.00;;;;;;;;5010860;28;49690;-67
2021/11/02 16:34:44;;;;;;;;;1.25;1.25;;;;;;;;5010647;28;49634;-67
2021/11/02 16:37:09;;;;;;;;;3.00;1.00;;;;;;;;5010645;28;49034;-66
2021/11/02 16:39:34;;;;;;;;;0.50;0.50;;;;;;;;5009463;28;50005;-69
2021/11/02 16:42:03;;;;;;;;;1.25;1.25;;;;;;;;5029075;28;49941;-68
2021/11/02 16:44:38;;;;;;;;;1.00;1.00;;;;;;;;5029683;28;50607;-68
2021/11/02 16:47:03;;;;;;;;;4.00;4.00;;;;;;;;5029433;28;50036;-69
2021/11/02 16:49:28;;;;;;;;;1.75;1.75;;;;;;;;5028659;28;49963;-69
2021/11/02 16:51:54;;;;;;;;;1.50;1.50;;;;;;;;5029170;28;49739;-67
2021/11/02 16:54:19;;;;;;;;;4.00;2.00;;;;;;;;5029240;28;49925;-71
2021/11/02 16:57:04;;;;;;;;;1.00;1.00;;;;;;;;5025274;28;49841;-74
2021/11/02 16:59:38;;;;;;;;;4.50;2.00;;;;;;;;5032667;28;49824;-71
2021/11/02 17:02:12;;;;;;;;;3.00;3.00;;;;;;;;5031092;28;49558;-73
2021/11/02 17:04:38;;;;;;;;;2.00;2.00;;;;;;;;5034167;28;50710;-79
2021/11/02 17:07:10;;;;;;;;;2.00;2.00;;;;;;;;5011946;28;50103;-71
2021/11/02 17:09:36;;;;;;;;;2.00;2.00;;;;;;;;5029471;28;49898;-77
2021/11/02 17:12:01;;;;;;;;;2.00;2.00;;;;;;;;5028848;28;50074;-73
2021/11/02 17:14:26;;;;;;;;;2.00;2.00;;;;;;;;5034739;28;49769;-72
2021/11/02 17:16:52;;;;;;;;;6.75;4.50;;;;;;;;5033094;28;49613;-68
2021/11/02 17:19:17;;;;;;;;;2.25;2.25;;;;;;;;5013436;28;50055;-77
2021/11/02 17:21:43;;;;;;;;;3.25;3.00;;;;;;;;5030939;28;49680;-77
2021/11/02 17:24:08;;;;;;;;;4.00;3.00;;;;;;;;4995448;28;50260;-77
2021/11/02 17:26:34;;;;;;;;;3.75;2.00;;;;;;;;5029922;28;49817;-72
2021/11/02 17:29:00;;;;;;;;;2.00;0.75;;;;;;;;5016576;28;49778;-74
2021/11/02 17:31:27;;;;;;;;;2.25;1.50;;;;;;;;5032190;28;49662;-77
2021/11/02 17:33:52;;;;;;;;;5.00;3.50;;;;;;;;5011613;28;50250;-77
2021/11/02 17:36:18;;;;;;;;;2.75;2.75;;;;;;;;5011645;28;49619;-71
2021/11/02 17:38:44;;;;;;;;;1.00;1.00;;;;;;;;5031119;28;49691;-75
2021/11/02 17:41:09;;;;;;;;;2.00;2.00;;;;;;;;5029199;28;49871;-72
2021/11/02 17:43:35;;;;;;;;;3.00;2.75;;;;;;;;5031737;28;49899;-79
2021/11/02 17:46:01;;;;;;;;;2.50;1.75;;;;;;;;5035090;28;49701;-73
2021/11/02 17:48:26;;;;;;;;;2.00;2.00;;;;;;;;5034060;28;49811;-73
2021/11/02 17:50:52;;;;;;;;;2.25;2.00;;;;;;;;5015457;28;49799;-72
2021/11/02 17:53:18;;;;;;;;;3.00;3.00;;;;;;;;5034737;28;49676;-72
2021/11/02 17:55:43;;;;;;;;;6.00;4.50;;;;;;;;5033573;28;49727;-79
2021/11/02 17:58:08;;;;;;;;;5.00;3.00;;;;;;;;5031101;28;49763;-79
2021/11/02 18:00:33;;;;;;;;;4.00;4.00;;;;;;;;5032263;28;49876;-78
2021/11/02 18:02:59;;;;;;;;;5.50;4.00;;;;;;;;5031548;28;50367;-72
2021/11/02 18:05:25;;;;;;;;;3.00;3.00;;;;;;;;5032790;28;49764;-70
2021/11/02 18:07:51;;;;;;;;;3.25;3.25;;;;;;;;5017254;28;50013;-75
2021/11/02 18:10:17;;;;;;;;;4.25;4.25;;;;;;;;5031737;28;49700;-71
2021/11/02 18:12:42;;;;;;;;;3.00;2.00;;;;;;;;5031541;28;49683;-70
2021/11/02 18:15:08;;;;;;;;;4.00;2.50;;;;;;;;5032664;28;50047;-69
2021/11/02 18:17:33;;;;;;;;;6.75;5.00;;;;;;;;5039254;28;50025;-69
2021/11/02 18:19:59;;;;;;;;;2.50;1.00;;;;;;;;5051846;28;49772;-69
2021/11/02 18:22:25;;;;;;;;;3.50;3.50;;;;;;;;5051061;28;50469;-68
2021/11/02 18:24:50;;;;;;;;;3.75;3.75;;;;;;;;5052770;28;49647;-66
2021/11/02 18:27:18;;;;;;;;;7.50;4.75;;;;;;;;5052806;28;49712;-70
2021/11/02 18:29:45;;;;;;;;;3.25;3.25;;;;;;;;5052874;28;49684;-72
2021/11/02 18:32:11;;;;;;;;;6.25;4.50;;;;;;;;5051031;28;49778;-75
2021/11/02 18:34:36;;;;;;;;;5.00;4.00;;;;;;;;5052344;28;49750;-71
2021/11/02 18:37:02;;;;;;;;;1.00;1.00;;;;;;;;5034337;28;49763;-70
2021/11/02 18:39:27;;;;;;;;;4.00;4.00;;;;;;;;5034575;28;49924;-71
2021/11/02 18:41:52;;;;;;;;;5.25;5.25;;;;;;;;5033747;28;52264;-69
2021/11/02 18:44:18;;;;;;;;;4.50;3.75;;;;;;;;5032487;28;50019;-71
2021/11/02 18:46:44;;;;;;;;;4.25;4.00;;;;;;;;5034240;28;49608;-70
2021/11/02 18:49:09;;;;;;;;;5.75;5.50;;;;;;;;5051429;28;49856;-68
2021/11/02 18:51:35;;;;;;;;;5.25;5.25;;;;;;;;5051945;28;50493;-70
2021/11/02 18:54:00;;;;;;;;;5.00;4.75;;;;;;;;5052032;28;49629;-68
2021/11/02 18:56:26;;;;;;;;;8.00;8.00;;;;;;;;5052118;28;51714;-66
2021/11/02 18:58:51;;;;;;;;;5.50;5.50;;;;;;;;5052516;28;49487;-69
2021/11/02 19:01:20;;;;;;;;;13.50;11.25;;;;;;;;5034114;28;50470;-74
2021/11/02 19:03:45;;;;;;;;;12.50;9.75;;;;;;;;5050786;28;49875;-68
2021/11/02 19:06:10;;;;;;;;;9.50;8.00;;;;;;;;5050752;28;49365;-69
2021/11/02 19:08:35;;;;;;;;;11.00;9.75;;;;;;;;5052410;28;49973;-67
2021/11/02 19:11:01;;;;;;;;;8.50;8.50;;;;;;;;5051970;28;50325;-74
2021/11/02 19:13:26;;;;;;;;;9.00;8.00;;;;;;;;5051901;28;49631;-64
2021/11/02 19:15:51;;;;;;;;;4.75;4.75;;;;;;;;5052099;28;49966;-68
2021/11/02 19:18:16;;;;;;;;;9.00;7.75;;;;;;;;5050707;28;49715;-68
2021/11/02 19:20:42;;;;;;;;;8.50;8.25;;;;;;;;5050214;28;49710;-72
2021/11/02 19:23:08;;;;;;;;;11.25;9.75;;;;;;;;5050860;28;49955;-71
2021/11/02 19:25:34;;;;;;;;;9.50;9.50;;;;;;;;5051920;28;49897;-72
2021/11/02 19:27:59;;;;;;;;;9.50;9.25;;;;;;;;5033123;28;50068;-73
2021/11/02 19:30:25;;;;;;;;;11.50;10.00;;;;;;;;5031220;28;50208;-73
2021/11/02 19:32:50;;;;;;;;;9.75;9.75;;;;;;;;5030969;28;49831;-70
2021/11/02 19:35:18;;;;;;;;;10.50;9.00;;;;;;;;5049837;28;49797;-66
2021/11/02 19:37:45;;;;;;;;;12.00;11.00;;;;;;;;5049549;28;49877;-65